createdAt,value
2022-10-22T00:00:56.956Z,13.00
2022-10-22T00:03:24.909Z,13.00
2022-10-22T00:05:52.708Z,13.02
2022-10-22T00:08:21.788Z,13.02
2022-10-22T00:10:49.521Z,13.01
2022-10-22T00:13:17.821Z,12.99
2022-10-22T00:15:45.730Z,12.94
2022-10-22T00:18:13.501Z,12.86
2022-10-22T00:20:41.521Z,12.80
2022-10-22T00:23:09.315Z,12.83
2022-10-22T00:25:38.407Z,12.84
2022-10-22T00:28:06.490Z,12.78
2022-10-22T00:30:34.418Z,12.78
2022-10-22T00:33:02.129Z,12.76
2022-10-22T00:35:29.988Z,12.79
2022-10-22T00:37:58.045Z,12.82
2022-10-22T00:40:26.265Z,12.86
2022-10-22T00:42:55.407Z,12.89
2022-10-22T00:45:25.622Z,12.88
2022-10-22T00:47:58.398Z,12.90
2022-10-22T00:50:30.797Z,12.91
2022-10-22T00:52:59.391Z,12.94
2022-10-22T00:55:29.003Z,12.98
2022-10-22T00:57:59.489Z,13.02
2022-10-22T01:00:27.251Z,13.04
2022-10-22T01:02:55.668Z,13.05
2022-10-22T01:05:23.890Z,13.03
2022-10-22T01:07:54.156Z,13.05
2022-10-22T01:10:35.962Z,12.99
2022-10-22T01:13:17.963Z,12.97
2022-10-22T01:15:54.166Z,13.01
2022-10-22T01:18:30.246Z,13.03
2022-10-22T01:21:06.702Z,13.02
2022-10-22T01:23:53.967Z,12.99
2022-10-22T01:26:29.351Z,12.94
2022-10-22T01:29:08.098Z,12.95
2022-10-22T01:31:39.573Z,12.96
2022-10-22T01:34:09.312Z,12.96
2022-10-22T01:36:39.830Z,12.92
2022-10-22T01:39:09.381Z,12.93
2022-10-22T01:41:37.518Z,12.93
2022-10-22T01:44:06.895Z,12.91
2022-10-22T01:46:34.946Z,12.85
2022-10-22T01:49:18.331Z,12.82
2022-10-22T01:51:57.570Z,12.77
2022-10-22T01:54:34.576Z,12.77
2022-10-22T01:57:14.026Z,12.76
2022-10-22T01:59:52.464Z,12.81
2022-10-22T02:02:33.323Z,12.84
2022-10-22T02:05:06.512Z,12.79
2022-10-22T02:07:38.826Z,12.81
2022-10-22T02:10:10.247Z,12.80
2022-10-22T02:12:39.910Z,12.80
2022-10-22T02:15:11.677Z,12.77
2022-10-22T02:17:40.798Z,12.78
2022-10-22T02:20:13.775Z,12.77
2022-10-22T02:22:42.441Z,12.73
2022-10-22T02:25:13.191Z,12.72
2022-10-22T02:27:45.535Z,12.75
2022-10-22T02:30:18.241Z,12.76
2022-10-22T02:32:52.569Z,12.78
2022-10-22T02:35:25.857Z,12.76
2022-10-22T02:37:56.180Z,12.75
2022-10-22T02:40:25.134Z,12.72
2022-10-22T02:42:53.898Z,12.74
2022-10-22T02:45:23.747Z,12.75
2022-10-22T02:47:53.245Z,12.81
2022-10-22T02:50:20.926Z,12.85
2022-10-22T02:52:48.684Z,12.82
2022-10-22T02:55:16.710Z,12.91
2022-10-22T02:57:44.524Z,12.93
2022-10-22T03:00:13.477Z,12.93
2022-10-22T03:02:42.570Z,12.90
2022-10-22T03:05:10.860Z,12.86
2022-10-22T03:07:39.249Z,12.82
2022-10-22T03:10:08.299Z,12.81
2022-10-22T03:12:35.998Z,12.83
2022-10-22T03:15:03.888Z,12.85
2022-10-22T03:17:31.817Z,12.85
2022-10-22T03:20:00.929Z,12.85
2022-10-22T03:22:33.428Z,12.84
2022-10-22T03:25:05.320Z,12.81
2022-10-22T03:27:33.129Z,12.85
2022-10-22T03:30:00.895Z,12.87
2022-10-22T03:32:28.759Z,12.89
2022-10-22T03:34:56.545Z,12.87
2022-10-22T03:37:27.103Z,12.80
2022-10-22T03:39:56.093Z,12.82
2022-10-22T03:42:24.383Z,12.81
2022-10-22T03:44:52.343Z,12.77
2022-10-22T03:47:20.136Z,12.75
2022-10-22T03:49:47.866Z,12.75
2022-10-22T03:52:16.275Z,12.76
2022-10-22T03:54:45.721Z,12.72
2022-10-22T03:57:13.492Z,12.76
2022-10-22T03:59:44.004Z,12.72
2022-10-22T04:02:13.307Z,12.63
2022-10-22T04:04:41.221Z,12.67
2022-10-22T04:07:09.573Z,12.67
2022-10-22T04:09:37.540Z,12.71
2022-10-22T04:12:07.953Z,12.68
2022-10-22T04:14:36.400Z,12.68
2022-10-22T04:17:04.593Z,12.67
2022-10-22T04:19:32.340Z,12.56
2022-10-22T04:22:00.420Z,12.52
2022-10-22T04:24:29.509Z,12.48
2022-10-22T04:26:57.492Z,12.52
2022-10-22T04:29:27.452Z,12.47
2022-10-22T04:31:55.233Z,12.49
2022-10-22T04:34:23.064Z,12.49
2022-10-22T04:36:50.803Z,12.43
2022-10-22T04:39:18.656Z,12.41
2022-10-22T04:41:46.394Z,12.41
2022-10-22T04:44:16.808Z,12.42
2022-10-22T04:46:46.898Z,12.45
2022-10-22T04:49:14.703Z,12.46
2022-10-22T04:51:42.503Z,12.46
2022-10-22T04:54:10.203Z,12.48
2022-10-22T04:56:38.431Z,12.46
2022-10-22T04:59:08.351Z,12.46
2022-10-22T05:01:41.715Z,12.42
2022-10-22T05:04:14.175Z,12.35
2022-10-22T05:06:42.099Z,12.37
2022-10-22T05:09:14.297Z,12.37
2022-10-22T05:11:45.386Z,12.37
2022-10-22T05:14:14.094Z,12.37
2022-10-22T05:16:42.091Z,12.40
2022-10-22T05:19:10.065Z,12.41
2022-10-22T05:21:39.440Z,12.42
2022-10-22T05:24:08.163Z,12.41
2022-10-22T05:26:35.872Z,12.40
2022-10-22T05:29:04.003Z,12.43
2022-10-22T05:31:31.814Z,12.38
2022-10-22T05:33:59.648Z,12.36
2022-10-22T05:36:28.086Z,12.34
2022-10-22T05:38:58.825Z,12.34
2022-10-22T05:41:28.090Z,12.31
2022-10-22T05:43:57.193Z,12.32
2022-10-22T05:46:26.703Z,12.31
2022-10-22T05:48:56.950Z,12.27
2022-10-22T05:51:25.435Z,12.27
2022-10-22T05:53:54.551Z,12.23
2022-10-22T05:56:24.021Z,12.20
2022-10-22T05:58:52.583Z,12.17
2022-10-22T06:01:21.996Z,12.11
2022-10-22T06:03:50.525Z,12.08
2022-10-22T06:06:22.423Z,12.06
2022-10-22T06:08:52.407Z,12.10
2022-10-22T06:11:22.153Z,12.07
2022-10-22T06:13:52.165Z,12.11
2022-10-22T06:16:20.472Z,12.11
2022-10-22T06:18:48.315Z,12.12
2022-10-22T06:21:17.541Z,12.15
2022-10-22T06:23:45.507Z,12.13
2022-10-22T06:26:13.460Z,12.06
2022-10-22T06:28:41.203Z,12.14
2022-10-22T06:31:11.292Z,12.23
2022-10-22T06:33:42.296Z,12.27
2022-10-22T06:36:12.825Z,12.36
2022-10-22T06:38:41.511Z,12.47
2022-10-22T06:41:11.641Z,12.75
2022-10-22T06:43:39.751Z,12.97
2022-10-22T06:46:13.704Z,12.77
2022-10-22T06:48:44.210Z,12.81
2022-10-22T06:51:13.053Z,12.80
2022-10-22T06:53:41.805Z,12.91
2022-10-22T06:56:11.750Z,12.92
2022-10-22T06:58:39.685Z,12.92
2022-10-22T07:01:11.387Z,13.03
2022-10-22T07:03:40.236Z,12.99
2022-10-22T07:06:09.842Z,12.99
2022-10-22T07:08:38.076Z,13.06
2022-10-22T07:11:11.355Z,13.05
2022-10-22T07:13:39.557Z,13.13
2022-10-22T07:16:08.577Z,13.16
2022-10-22T07:18:39.257Z,13.23
2022-10-22T07:21:08.040Z,13.28
2022-10-22T07:23:35.962Z,13.84
2022-10-22T07:26:04.164Z,14.04
2022-10-22T07:28:33.442Z,13.84
2022-10-22T07:31:01.258Z,14.14
2022-10-22T07:33:29.049Z,14.84
2022-10-22T07:36:01.416Z,15.32
2022-10-22T07:38:29.926Z,15.04
2022-10-22T07:40:57.694Z,15.17
2022-10-22T07:43:25.807Z,15.72
2022-10-22T07:45:55.664Z,15.77
2022-10-22T07:48:23.556Z,15.82
2022-10-22T07:50:52.054Z,16.07
2022-10-22T07:53:22.061Z,16.55
2022-10-22T07:55:50.468Z,16.77
2022-10-22T07:58:18.800Z,16.86
2022-10-22T08:00:47.531Z,16.52
2022-10-22T08:03:18.460Z,16.36
2022-10-22T08:05:46.919Z,15.92
2022-10-22T08:08:16.721Z,15.80
2022-10-22T08:10:46.884Z,15.92
2022-10-22T08:13:15.209Z,16.04
2022-10-22T08:18:16.546Z,16.17
2022-10-22T08:20:44.361Z,16.31
2022-10-22T08:23:12.133Z,16.50
2022-10-22T08:25:39.883Z,16.84
2022-10-22T08:28:09.004Z,17.05
2022-10-22T08:30:38.548Z,17.37
2022-10-22T08:33:07.101Z,17.75
2022-10-22T08:35:35.309Z,18.20
2022-10-22T08:38:02.986Z,17.86
2022-10-22T08:40:34.481Z,17.88
2022-10-22T08:43:35.555Z,17.57
2022-10-22T08:46:13.577Z,17.29
2022-10-22T08:48:47.608Z,16.95
2022-10-22T08:51:18.032Z,16.99
2022-10-22T08:53:56.244Z,16.94
2022-10-22T08:56:24.916Z,16.74
2022-10-22T08:59:00.080Z,16.83
2022-10-22T09:01:36.180Z,16.78
2022-10-22T09:04:12.224Z,16.63
2022-10-22T09:06:44.211Z,16.64
2022-10-22T09:09:16.163Z,16.62
2022-10-22T09:11:47.054Z,16.58
2022-10-22T09:14:18.788Z,16.54
2022-10-22T09:17:06.472Z,16.53
2022-10-22T09:19:43.069Z,16.50
2022-10-22T09:22:22.156Z,16.49
2022-10-22T09:24:53.609Z,16.39
2022-10-22T09:27:27.039Z,16.37
2022-10-22T09:29:56.294Z,16.41
2022-10-22T09:32:25.009Z,16.56
2022-10-22T09:34:57.815Z,16.56
2022-10-22T09:37:29.125Z,16.62
2022-10-22T09:39:59.844Z,16.64
2022-10-22T09:42:28.107Z,16.83
2022-10-22T09:44:59.769Z,16.97
2022-10-22T09:47:42.630Z,17.06
2022-10-22T09:50:27.187Z,17.09
2022-10-22T09:53:05.908Z,17.04
2022-10-22T09:55:33.743Z,17.10
2022-10-22T09:58:01.865Z,17.28
2022-10-22T10:00:31.321Z,17.37
2022-10-22T10:03:01.208Z,17.52
2022-10-22T10:05:31.787Z,17.63
2022-10-22T10:08:01.720Z,17.77
2022-10-22T10:10:37.555Z,18.09
2022-10-22T10:13:24.049Z,18.08
2022-10-22T10:15:59.063Z,18.17
2022-10-22T10:18:35.955Z,18.84
2022-10-22T10:23:49.552Z,18.83
2022-10-22T10:26:25.349Z,18.92
2022-10-22T10:29:24.159Z,18.55
2022-10-22T10:32:13.710Z,18.25
2022-10-22T10:34:49.181Z,17.99
2022-10-22T10:37:23.292Z,17.83
2022-10-22T10:40:16.590Z,17.78
2022-10-22T10:42:50.269Z,17.89
2022-10-22T10:45:23.017Z,17.81
2022-10-22T10:48:16.243Z,17.67
2022-10-22T10:50:55.263Z,17.65
2022-10-22T10:53:30.843Z,17.79
2022-10-22T10:56:07.119Z,17.76
2022-10-22T10:58:44.156Z,17.72
2022-10-22T11:01:21.976Z,17.57
2022-10-22T11:04:15.270Z,17.71
2022-10-22T11:06:45.673Z,17.63
2022-10-22T11:09:24.379Z,18.03
2022-10-22T11:11:58.013Z,18.28
2022-10-22T11:14:33.372Z,18.45
2022-10-22T11:17:06.062Z,18.33
2022-10-22T11:19:50.921Z,18.31
2022-10-22T11:22:26.962Z,18.10
2022-10-22T11:25:01.497Z,18.30
2022-10-22T11:27:38.102Z,18.20
2022-10-22T11:30:13.504Z,18.09
2022-10-22T11:32:44.763Z,17.85
2022-10-22T11:35:23.478Z,17.94
2022-10-22T11:37:56.553Z,17.96
2022-10-22T11:40:34.765Z,18.01
2022-10-22T11:43:06.302Z,18.17
2022-10-22T11:45:38.313Z,18.16
2022-10-22T11:48:18.810Z,18.14
2022-10-22T11:50:52.929Z,17.96
2022-10-22T11:53:31.003Z,17.74
2022-10-22T11:56:00.030Z,17.84
2022-10-22T11:58:34.447Z,17.72
2022-10-22T12:01:41.986Z,17.72
2022-10-22T12:04:23.982Z,17.69
2022-10-22T12:07:01.886Z,17.65
2022-10-22T12:09:32.737Z,17.66
2022-10-22T12:12:15.558Z,17.68
2022-10-22T12:14:54.658Z,17.73
2022-10-22T12:17:23.784Z,17.98
2022-10-22T12:20:01.981Z,18.12
2022-10-22T12:22:33.781Z,18.19
2022-10-22T12:25:03.886Z,18.14
2022-10-22T12:27:36.997Z,18.34
2022-10-22T12:30:19.740Z,18.37
2022-10-22T12:32:47.573Z,18.35
2022-10-22T12:35:18.731Z,18.32
2022-10-22T12:37:51.323Z,18.65
2022-10-22T12:40:21.289Z,19.46
2022-10-22T12:42:51.069Z,19.88
2022-10-22T12:45:18.892Z,19.60
2022-10-22T12:47:47.820Z,19.86
2022-10-22T12:50:21.145Z,19.97
2022-10-22T12:52:50.658Z,19.80
2022-10-22T12:55:20.576Z,19.76
2022-10-22T12:57:49.171Z,20.19
2022-10-22T13:00:22.481Z,20.67
2022-10-22T13:02:50.520Z,20.28
2022-10-22T13:05:23.665Z,20.03
2022-10-22T13:07:54.694Z,19.89
2022-10-22T13:10:26.615Z,20.36
2022-10-22T13:12:56.969Z,20.29
2022-10-22T13:15:37.072Z,20.04
2022-10-22T13:18:07.869Z,19.67
2022-10-22T13:20:37.343Z,19.43
2022-10-22T13:23:07.107Z,19.43
2022-10-22T13:25:37.247Z,19.29
2022-10-22T13:28:20.910Z,19.40
2022-10-22T13:30:54.201Z,19.19
2022-10-22T13:33:26.574Z,19.71
2022-10-22T13:35:56.230Z,19.76
2022-10-22T13:38:26.975Z,20.03
2022-10-22T13:40:55.510Z,20.08
2022-10-22T13:43:23.971Z,20.20
2022-10-22T13:45:55.272Z,20.51
2022-10-22T13:48:25.730Z,20.53
2022-10-22T13:50:54.558Z,20.24
2022-10-22T13:53:26.352Z,20.56
2022-10-22T13:55:54.572Z,20.60
2022-10-22T13:58:24.953Z,20.54
2022-10-22T14:00:55.583Z,20.65
2022-10-22T14:03:27.353Z,20.12
2022-10-22T14:05:55.185Z,20.01
2022-10-22T14:08:26.539Z,20.00
2022-10-22T14:10:55.089Z,19.89
2022-10-22T14:13:23.464Z,20.09
2022-10-22T14:15:53.132Z,20.05
2022-10-22T14:18:26.438Z,20.21
2022-10-22T14:20:56.037Z,19.91
2022-10-22T14:23:27.697Z,20.03
2022-10-22T14:25:56.265Z,19.87
2022-10-22T14:28:24.053Z,19.99
2022-10-22T14:30:52.510Z,19.83
2022-10-22T14:33:27.248Z,19.72
2022-10-22T14:35:59.222Z,19.77
2022-10-22T14:38:28.696Z,19.82
2022-10-22T14:40:56.674Z,19.57
2022-10-22T14:43:26.909Z,19.44
2022-10-22T14:45:54.842Z,19.58
2022-10-22T14:48:22.795Z,19.57
2022-10-22T14:50:50.919Z,19.63
2022-10-22T14:53:18.601Z,19.70
2022-10-22T14:55:49.077Z,19.61
2022-10-22T14:58:17.137Z,19.78
2022-10-22T15:00:44.933Z,19.90
2022-10-22T15:03:13.024Z,19.86
2022-10-22T15:05:43.360Z,19.72
2022-10-22T15:08:11.825Z,19.58
2022-10-22T15:10:40.158Z,19.56
2022-10-22T15:13:09.445Z,19.52
2022-10-22T15:15:39.919Z,19.48
2022-10-22T15:18:07.887Z,19.50
2022-10-22T15:20:35.698Z,19.52
2022-10-22T15:23:03.525Z,19.47
2022-10-22T15:25:31.351Z,19.38
2022-10-22T15:28:03.359Z,19.30
2022-10-22T15:30:36.649Z,19.25
2022-10-22T15:33:04.539Z,19.18
2022-10-22T15:35:32.253Z,19.14
2022-10-22T15:37:59.987Z,19.00
2022-10-22T15:40:27.798Z,18.94
2022-10-22T15:42:55.491Z,18.86
2022-10-22T15:45:25.156Z,18.73
2022-10-22T15:47:54.201Z,18.65
2022-10-22T15:50:21.876Z,18.60
2022-10-22T15:52:49.594Z,18.41
2022-10-22T15:55:17.391Z,18.38
2022-10-22T15:57:45.271Z,18.28
2022-10-22T16:00:14.144Z,18.23
2022-10-22T16:02:42.842Z,18.23
2022-10-22T16:05:12.297Z,18.22
2022-10-22T16:07:40.317Z,18.16
2022-10-22T16:10:12.576Z,18.06
2022-10-22T16:12:41.311Z,17.90
2022-10-22T16:15:10.517Z,17.75
2022-10-22T16:17:38.254Z,17.56
2022-10-22T16:20:06.922Z,17.47
2022-10-22T16:22:35.995Z,17.44
2022-10-22T16:25:03.901Z,17.38
2022-10-22T16:27:31.648Z,17.31
2022-10-22T16:29:59.487Z,17.27
2022-10-22T16:32:27.269Z,17.17
2022-10-22T16:34:54.930Z,17.04
2022-10-22T16:37:22.624Z,17.05
2022-10-22T16:39:51.735Z,17.07
2022-10-22T16:42:19.457Z,16.94
2022-10-22T16:44:47.171Z,16.94
2022-10-22T16:47:15.377Z,16.83
2022-10-22T16:49:43.129Z,16.74
2022-10-22T16:52:10.849Z,16.69
2022-10-22T16:54:38.597Z,16.70
2022-10-22T16:57:07.703Z,16.64
2022-10-22T16:59:35.757Z,16.57
2022-10-22T17:04:32.235Z,16.35
2022-10-22T17:06:59.945Z,16.22
2022-10-22T17:09:27.847Z,16.17
2022-10-22T17:11:56.137Z,16.24
2022-10-22T17:14:25.308Z,16.21
2022-10-22T17:16:53.933Z,16.01
2022-10-22T17:19:22.697Z,15.97
2022-10-22T17:21:51.376Z,15.93
2022-10-22T17:24:19.391Z,15.86
2022-10-22T17:26:47.632Z,15.82
2022-10-22T17:29:15.344Z,15.79
2022-10-22T17:31:44.483Z,15.66
2022-10-22T17:34:17.512Z,15.52
2022-10-22T17:36:45.901Z,15.39
2022-10-22T17:39:18.593Z,15.36
2022-10-22T17:41:46.853Z,15.32
2022-10-22T17:44:16.542Z,15.31
2022-10-22T17:46:45.932Z,15.22
2022-10-22T17:49:18.103Z,15.16
2022-10-22T17:51:46.195Z,15.12
2022-10-22T17:54:14.700Z,15.08
2022-10-22T17:56:42.444Z,15.15
2022-10-22T17:59:12.797Z,15.15
2022-10-22T18:01:45.230Z,15.11
2022-10-22T18:04:17.010Z,15.13
2022-10-22T18:06:46.616Z,15.05
2022-10-22T18:09:18.461Z,15.03
2022-10-22T18:11:47.507Z,14.94
2022-10-22T18:14:15.622Z,14.94
2022-10-22T18:16:43.420Z,14.93
2022-10-22T18:19:12.251Z,14.88
2022-10-22T18:21:41.329Z,14.80
2022-10-22T18:24:10.356Z,14.68
2022-10-22T18:26:38.072Z,14.59
2022-10-22T18:29:05.775Z,14.63
2022-10-22T18:31:33.618Z,14.61
2022-10-22T18:34:01.373Z,14.61
2022-10-22T18:36:29.287Z,14.52
2022-10-22T18:39:00.193Z,14.52
2022-10-22T18:41:29.331Z,14.51
2022-10-22T18:43:58.335Z,14.51
2022-10-22T18:46:27.250Z,14.40
2022-10-22T18:48:55.971Z,14.40
2022-10-22T18:51:25.441Z,14.31
2022-10-22T18:54:05.376Z,14.25
2022-10-22T18:56:41.533Z,14.27
2022-10-22T18:59:16.099Z,14.22
2022-10-22T19:01:43.940Z,14.23
2022-10-22T19:04:12.996Z,14.21
2022-10-22T19:06:45.089Z,14.19
2022-10-22T19:09:14.533Z,14.23
2022-10-22T19:11:44.754Z,14.24
2022-10-22T19:14:14.602Z,14.18
2022-10-22T19:16:42.637Z,14.19
2022-10-22T19:19:10.344Z,14.18
2022-10-22T19:21:38.910Z,14.15
2022-10-22T19:24:07.723Z,14.14
2022-10-22T19:26:35.706Z,14.11
2022-10-22T19:29:05.257Z,14.09
2022-10-22T19:31:33.492Z,14.07
2022-10-22T19:34:03.152Z,14.05
2022-10-22T19:36:32.513Z,14.01
2022-10-22T19:39:01.700Z,14.00
2022-10-22T19:41:31.467Z,13.90
2022-10-22T19:44:00.888Z,13.92
2022-10-22T19:46:32.422Z,13.92
2022-10-22T19:49:00.846Z,13.87
2022-10-22T19:51:30.734Z,13.74
2022-10-22T19:54:00.461Z,13.68
2022-10-22T19:56:28.829Z,13.76
2022-10-22T19:58:56.617Z,13.73
2022-10-22T20:01:24.726Z,13.74
2022-10-22T20:03:54.411Z,13.71
2022-10-22T20:06:23.147Z,13.74
2022-10-22T20:08:53.775Z,13.72
2022-10-22T20:11:26.367Z,13.66
2022-10-22T20:13:54.927Z,13.66
2022-10-22T20:16:25.087Z,13.66
2022-10-22T20:18:54.545Z,13.64
2022-10-22T20:21:22.685Z,13.66
2022-10-22T20:23:54.062Z,13.64
2022-10-22T20:26:24.255Z,13.68
2022-10-22T20:28:53.271Z,13.69
2022-10-22T20:31:24.016Z,13.68
2022-10-22T20:33:52.184Z,13.67
2022-10-22T20:36:23.643Z,13.67
2022-10-22T20:38:52.578Z,13.63
2022-10-22T20:41:22.536Z,13.53
2022-10-22T20:43:52.765Z,13.57
2022-10-22T20:46:23.360Z,13.61
2022-10-22T20:48:53.144Z,13.59
2022-10-22T20:51:22.584Z,13.57
2022-10-22T20:53:51.133Z,13.57
2022-10-22T20:56:19.552Z,13.54
2022-10-22T20:58:48.950Z,13.50
2022-10-22T21:01:21.424Z,13.48
2022-10-22T21:03:50.004Z,13.50
2022-10-22T21:06:20.787Z,13.41
2022-10-22T21:08:50.318Z,13.45
2022-10-22T21:11:18.182Z,13.41
2022-10-22T21:13:45.944Z,13.43
2022-10-22T21:16:15.253Z,13.44
2022-10-22T21:18:43.147Z,13.45
2022-10-22T21:21:11.649Z,13.48
2022-10-22T21:23:39.968Z,13.46
2022-10-22T21:26:09.124Z,13.42
2022-10-22T21:28:37.946Z,13.42
2022-10-22T21:31:07.311Z,13.40
2022-10-22T21:33:37.601Z,13.43
2022-10-22T21:36:06.920Z,13.43
2022-10-22T21:38:35.987Z,13.41
2022-10-22T21:41:06.162Z,13.37
2022-10-22T21:43:37.345Z,13.28
2022-10-22T21:46:08.076Z,13.30
2022-10-22T21:48:37.088Z,13.31
2022-10-22T21:51:09.948Z,13.32
2022-10-22T21:53:38.378Z,13.27
2022-10-22T21:56:07.482Z,13.26
2022-10-22T21:58:37.264Z,13.20
2022-10-22T22:01:05.247Z,13.13
2022-10-22T22:03:33.100Z,13.08
2022-10-22T22:06:01.675Z,13.06
2022-10-22T22:08:29.998Z,13.02
2022-10-22T22:11:02.307Z,12.95
2022-10-22T22:13:30.371Z,13.02
2022-10-22T22:16:02.933Z,13.00
2022-10-22T22:18:31.021Z,12.92
2022-10-22T22:20:59.551Z,12.98
2022-10-22T22:23:27.761Z,12.97
2022-10-22T22:25:59.424Z,12.90
2022-10-22T22:28:27.268Z,12.85
2022-10-22T22:30:54.999Z,12.80
2022-10-22T22:33:24.145Z,12.79
2022-10-22T22:35:52.087Z,12.78
2022-10-22T22:38:19.805Z,12.79
2022-10-22T22:40:47.537Z,12.71
2022-10-22T22:43:15.233Z,12.70
2022-10-22T22:45:42.997Z,12.68
2022-10-22T22:48:10.721Z,12.64
2022-10-22T22:50:39.874Z,12.66
2022-10-22T22:53:07.561Z,12.69
2022-10-22T22:55:35.415Z,12.67
2022-10-22T22:58:03.091Z,12.70
2022-10-22T23:00:31.122Z,12.68
2022-10-22T23:02:58.850Z,12.69
2022-10-22T23:05:26.550Z,12.67
2022-10-22T23:07:55.636Z,12.66
2022-10-22T23:10:23.433Z,12.64
2022-10-22T23:12:51.063Z,12.67
2022-10-22T23:15:18.752Z,12.64
2022-10-22T23:17:46.623Z,12.65
2022-10-22T23:20:14.335Z,12.67
2022-10-22T23:22:42.516Z,12.67
2022-10-22T23:25:11.923Z,12.66
2022-10-22T23:27:39.817Z,12.64
2022-10-22T23:30:09.220Z,12.64
2022-10-22T23:32:37.158Z,12.61
2022-10-22T23:35:05.256Z,12.59
2022-10-22T23:37:32.977Z,12.59
2022-10-22T23:40:00.656Z,12.60
2022-10-22T23:42:29.725Z,12.59
2022-10-22T23:44:57.868Z,12.62
2022-10-22T23:47:25.639Z,12.56
2022-10-22T23:49:53.479Z,12.53
2022-10-22T23:52:21.096Z,12.52
2022-10-22T23:54:49.733Z,12.48
2022-10-22T23:57:17.510Z,12.45
2022-10-22T23:59:46.645Z,12.46
